Aérodrome :
LOGIN :

S'inscrire | Disclaimer

   EN    FR    IT 

 










Légende :    VFR   VFR Marginal   IFR   IFR Intensif   IFR Très Intensif
Visi : 
Plafond : 
>= 8 km
>= 3000ft
5 à 8 km
1000 à 3000 ft
1500m à 5 km
500 à 1000 ft
800 à 1500m
200 à 500 ft
< 800m
< 200 ft
Symboles :   Orages  Brouillard  Fortes neiges  Fortes précipitations  Vent > 20 kt
SIGMETs :   Divers  Orages  Givrage  Turbulence  Onde Orograph.  Cendres Volcan.







- Altitude de l'aérodrome : 95 ft
- Code IATA : AHU


GMTA - Al Hoceima

DERNIER METAR :
  • 160200Z 28002KT 8000 FEW026 SCT080 21/20 Q1015 NOSIG

METARs EXPIRÉS :
  • 160100Z 18002KT 8000 FEW026 SCT080 22/21 Q1015 NOSIG
  • 160000Z 16002KT 8000 FEW026 SCT080 23/21 Q1016 NOSIG
  • 152300Z 16002KT 8000 SCT026 SCT080 23/21 Q1016 NOSIG

TAF TAF GMTA
Valide du 16 à 00h jusqu'au 17 à 06h UTC


152300Z 1600/1706 VRB02KT SCT026 BKN080
PROB40 1600/1607 2000 BR BKN010 SCT030
BECMG 1608/1610 35008KT
PROB40 1623/1706 4000 BR SCT010
Pas de NOTAMs connus pour ce terrain.
4 SIGMETs publiés pour la FIR Casablanca (GMMM) :
 
Orages noyés dans la masse
GMMM SIGMET E8 VALID 160300/160700 GMMC
GMMM CASABLANCA FIR EMBD TS FCST S OF LINE N3143 W00315 - N3140 W00549 TOP FL340 MOV NE INTSF=
Orages noyés dans la masse
GMMM SIGMET E7 VALID 152300/160300 GMMC
GMMM CASABLANCA FIR EMBD TS FCST S OF LINE N3133 W00341 - N3136 W006 48 TOP FL340 STNR INTSF=
Annulation du SIGMET E5
GMMM SIGMET E6 VALID 152300/160300 GMMC
GMMM CASABLANCA FIR CNL SIGMET E5 152300/160300=
SIGMET E5  ANNULÉ :
Orages noyés dans la masse
GMMM SIGMET E5 VALID 152300/160300 GMMC
GMMM CASABLANCA FIR EMBD TS FCST S OF LINE N3133 W00341 - N3136 W006 48 TOP FL340 MOV NE INTSF=



MET'MAP, la Météo Aéronautique d'un coup d'oeil ! - Copyright ORBIFLY Décembre 2007 - Disclaimer

ORBIFLY MET'MAP TEAM :

Programmation & Développement : Alexandra Zaïnal
Conception & Développement : Baudouin d'Aumeries
Co-Programmation & Développement : Marc-Olivier Méhu
Soutien technique & logistique : Manuel Goepfert

Contact : metmap@orbifly.com




SOURCES & CREDITS :

   NOAA